createdAt,value
2022-11-05T00:01:15.945Z,79.34
2022-11-05T00:03:58.265Z,78.95
2022-11-05T00:06:42.445Z,79.03
2022-11-05T00:09:34.961Z,79.20
2022-11-05T00:12:21.343Z,79.78
2022-11-05T00:15:03.763Z,80.53
2022-11-05T00:17:33.191Z,80.49
2022-11-05T00:20:02.823Z,80.12
2022-11-05T00:22:47.298Z,80.28
2022-11-05T00:25:17.100Z,79.96
2022-11-05T00:27:47.696Z,80.22
2022-11-05T00:30:20.887Z,78.69
2022-11-05T00:32:52.321Z,78.97
2022-11-05T00:35:23.526Z,78.69
2022-11-05T00:37:59.735Z,79.87
2022-11-05T00:40:28.915Z,80.50
2022-11-05T00:43:11.263Z,80.77
2022-11-05T00:45:40.849Z,79.18
2022-11-05T00:48:23.012Z,78.47
2022-11-05T00:50:53.578Z,78.89
2022-11-05T00:53:31.427Z,78.53
2022-11-05T00:56:00.705Z,78.98
2022-11-05T00:58:35.200Z,79.45
2022-11-05T01:01:06.037Z,79.12
2022-11-05T01:06:21.728Z,78.36
2022-11-05T01:08:52.853Z,78.48
2022-11-05T01:11:44.135Z,78.22
2022-11-05T01:14:15.509Z,78.74
2022-11-05T01:16:45.131Z,78.57
2022-11-05T01:19:19.600Z,78.53
2022-11-05T01:21:54.283Z,78.77
2022-11-05T01:24:26.332Z,77.92
2022-11-05T01:26:55.560Z,77.80
2022-11-05T01:29:25.706Z,78.06
2022-11-05T01:31:55.098Z,78.14
2022-11-05T01:34:25.237Z,78.19
2022-11-05T01:36:54.545Z,78.17
2022-11-05T01:39:25.823Z,78.83
2022-11-05T01:41:55.008Z,78.71
2022-11-05T01:45:03.177Z,78.54
2022-11-05T01:47:59.976Z,79.14
2022-11-05T01:50:38.982Z,78.97
2022-11-05T01:53:14.735Z,78.82
2022-11-05T01:55:51.513Z,79.12
2022-11-05T01:58:24.482Z,78.90
2022-11-05T02:00:54.320Z,78.95
2022-11-05T02:03:24.009Z,79.27
2022-11-05T02:05:55.048Z,79.12
2022-11-05T02:08:36.683Z,79.74
2022-11-05T02:11:12.993Z,79.80
2022-11-05T02:13:42.711Z,79.69
2022-11-05T02:16:25.672Z,80.01
2022-11-05T02:19:00.904Z,79.97
2022-11-05T02:22:08.365Z,80.07
2022-11-05T02:25:08.409Z,79.99
2022-11-05T02:28:20.011Z,80.94
2022-11-05T02:30:58.717Z,80.36
2022-11-05T02:33:37.956Z,80.78
2022-11-05T02:36:29.107Z,80.76
2022-11-05T02:39:14.775Z,80.65
2022-11-05T02:41:53.295Z,80.74
2022-11-05T02:44:37.422Z,80.92
2022-11-05T02:47:18.354Z,80.97
2022-11-05T02:50:00.373Z,80.83
2022-11-05T02:52:35.387Z,81.68
2022-11-05T02:57:50.257Z,80.62
2022-11-05T03:00:52.172Z,81.08
2022-11-05T03:03:29.175Z,80.68
2022-11-05T03:06:18.216Z,81.35
2022-11-05T03:09:13.383Z,81.25
2022-11-05T03:11:58.060Z,80.98
2022-11-05T03:14:36.164Z,80.57
2022-11-05T03:17:16.469Z,80.84
2022-11-05T03:19:53.041Z,80.83
2022-11-05T03:22:27.729Z,80.77
2022-11-05T03:25:02.061Z,80.91
2022-11-05T03:27:41.737Z,81.22
2022-11-05T03:30:13.572Z,81.42
2022-11-05T03:32:46.180Z,81.32
2022-11-05T03:35:23.038Z,81.55
2022-11-05T03:37:57.763Z,81.33
2022-11-05T03:40:28.223Z,81.72
2022-11-05T03:43:00.290Z,81.67
2022-11-05T03:45:34.492Z,80.72
2022-11-05T03:48:17.956Z,81.19
2022-11-05T03:50:57.715Z,80.82
2022-11-05T03:53:35.255Z,81.30
2022-11-05T03:56:08.335Z,81.86
2022-11-05T04:01:18.704Z,80.99
2022-11-05T04:03:47.815Z,80.91
2022-11-05T04:06:36.982Z,81.37
2022-11-05T04:09:19.131Z,81.78
2022-11-05T04:12:01.259Z,82.10
2022-11-05T04:14:30.493Z,80.54
2022-11-05T04:17:06.485Z,81.07
2022-11-05T04:19:48.952Z,81.40
2022-11-05T04:22:33.242Z,81.37
2022-11-05T04:25:02.811Z,82.23
2022-11-05T04:27:33.370Z,82.69
2022-11-05T04:30:20.620Z,82.86
2022-11-05T04:33:11.996Z,82.70
2022-11-05T04:35:43.400Z,82.54
2022-11-05T04:38:16.570Z,83.60
2022-11-05T04:40:46.679Z,84.14
2022-11-05T04:43:17.977Z,84.21
2022-11-05T04:45:52.533Z,84.12
2022-11-05T04:48:26.846Z,84.10
2022-11-05T04:50:55.968Z,84.21
2022-11-05T04:56:11.483Z,84.70
2022-11-05T04:58:41.961Z,85.07
2022-11-05T05:01:15.075Z,85.18
2022-11-05T05:03:44.640Z,85.22
2022-11-05T05:06:19.742Z,85.30
2022-11-05T05:08:51.889Z,85.60
2022-11-05T05:11:26.177Z,85.46
2022-11-05T05:13:55.218Z,84.60
2022-11-05T05:16:29.703Z,84.03
2022-11-05T05:18:58.827Z,83.78
2022-11-05T05:21:40.616Z,83.29
2022-11-05T05:24:13.934Z,83.11
2022-11-05T05:26:45.468Z,82.85
2022-11-05T05:29:15.660Z,83.49
2022-11-05T05:31:45.352Z,83.67
2022-11-05T05:34:26.380Z,84.34
2022-11-05T05:36:55.785Z,83.38
2022-11-05T05:39:28.107Z,82.09
2022-11-05T05:41:57.337Z,82.30
2022-11-05T05:44:27.511Z,82.97
2022-11-05T05:49:31.838Z,83.27
2022-11-05T05:52:01.036Z,83.71
2022-11-05T05:54:35.004Z,83.33
2022-11-05T05:57:07.055Z,83.01
2022-11-05T05:59:38.649Z,83.30
2022-11-05T06:02:08.234Z,83.20
2022-11-05T06:04:37.431Z,81.46
2022-11-05T06:07:13.435Z,81.34
2022-11-05T06:09:55.712Z,81.42
2022-11-05T06:12:25.067Z,80.96
2022-11-05T06:14:54.159Z,79.99
2022-11-05T06:17:23.464Z,78.55
2022-11-05T06:22:27.632Z,78.33
2022-11-05T06:24:58.732Z,78.45
2022-11-05T06:27:28.009Z,78.72
2022-11-05T06:29:57.236Z,79.48
2022-11-05T06:32:26.579Z,79.46
2022-11-05T06:35:00.737Z,79.87
2022-11-05T06:37:30.063Z,79.81
2022-11-05T06:40:07.269Z,80.00
2022-11-05T06:42:36.664Z,80.10
2022-11-05T06:45:07.774Z,78.85
2022-11-05T06:47:37.192Z,78.84
2022-11-05T06:50:07.169Z,78.15
2022-11-05T06:52:40.906Z,77.41
2022-11-05T06:55:12.605Z,77.13
2022-11-05T06:57:46.847Z,76.40
2022-11-05T07:00:17.079Z,76.20
2022-11-05T07:02:46.636Z,75.88
2022-11-05T07:05:16.579Z,74.90
2022-11-05T07:07:47.239Z,75.52
2022-11-05T07:10:23.451Z,75.44
2022-11-05T07:12:52.727Z,75.46
2022-11-05T07:15:21.923Z,75.01
2022-11-05T07:17:51.145Z,74.54
2022-11-05T07:20:20.519Z,73.49
2022-11-05T07:22:49.736Z,73.29
2022-11-05T07:25:19.222Z,72.32
2022-11-05T07:27:50.349Z,71.94
2022-11-05T07:30:24.825Z,71.83
2022-11-05T07:32:54.532Z,71.65
2022-11-05T07:35:23.664Z,72.50
2022-11-05T07:37:55.861Z,72.68
2022-11-05T07:40:27.139Z,72.83
2022-11-05T07:42:59.812Z,72.26
2022-11-05T07:45:31.274Z,72.51
2022-11-05T07:48:02.836Z,73.02
2022-11-05T07:50:34.374Z,72.74
2022-11-05T07:53:04.389Z,72.40
2022-11-05T07:55:33.484Z,72.14
2022-11-05T07:58:05.260Z,72.23
2022-11-05T08:00:35.445Z,71.58
2022-11-05T08:03:14.690Z,71.82
2022-11-05T08:05:46.378Z,72.21
2022-11-05T08:08:17.157Z,72.05
2022-11-05T08:10:47.369Z,71.70
2022-11-05T08:13:19.477Z,71.93
2022-11-05T08:15:48.985Z,72.95
2022-11-05T08:18:19.461Z,72.94
2022-11-05T08:20:50.162Z,73.12
2022-11-05T08:23:19.515Z,72.96
2022-11-05T08:25:48.621Z,73.46
2022-11-05T08:28:26.366Z,72.92
2022-11-05T08:30:57.224Z,72.61
2022-11-05T08:33:29.072Z,72.35
2022-11-05T08:35:58.373Z,71.96
2022-11-05T08:38:27.786Z,71.40
2022-11-05T08:40:59.419Z,70.71
2022-11-05T08:43:30.684Z,69.72
2022-11-05T08:46:02.122Z,70.45
2022-11-05T08:48:31.457Z,70.76
2022-11-05T08:51:03.599Z,70.66
2022-11-05T08:53:33.996Z,70.85
2022-11-05T08:56:03.360Z,70.22
2022-11-05T08:58:34.765Z,70.96
2022-11-05T09:01:06.509Z,70.99
2022-11-05T09:03:40.946Z,70.34
2022-11-05T09:06:10.432Z,70.26
2022-11-05T09:08:39.676Z,70.29
2022-11-05T09:11:08.926Z,70.96
2022-11-05T09:13:40.076Z,69.80
2022-11-05T09:16:20.085Z,70.16
2022-11-05T09:18:49.736Z,69.13
2022-11-05T09:21:19.516Z,69.06
2022-11-05T09:23:49.252Z,69.76
2022-11-05T09:26:18.542Z,70.03
2022-11-05T09:28:50.803Z,68.95
2022-11-05T09:31:20.048Z,68.98
2022-11-05T09:33:49.438Z,68.94
2022-11-05T09:36:18.722Z,68.80
2022-11-05T09:38:47.833Z,69.02
2022-11-05T09:41:25.561Z,69.04
2022-11-05T09:44:00.546Z,69.51
2022-11-05T09:46:35.775Z,69.53
2022-11-05T09:49:09.586Z,69.62
2022-11-05T09:51:39.578Z,69.49
2022-11-05T09:54:08.652Z,69.58
2022-11-05T09:56:42.711Z,70.03
2022-11-05T09:59:20.000Z,69.11
2022-11-05T10:01:52.322Z,69.70
2022-11-05T10:04:25.632Z,69.15
2022-11-05T10:06:58.887Z,69.16
2022-11-05T10:09:31.826Z,69.10
2022-11-05T10:12:09.137Z,68.88
2022-11-05T10:14:44.815Z,68.83
2022-11-05T10:17:26.856Z,69.16
2022-11-05T10:20:02.066Z,68.17
2022-11-05T10:22:32.633Z,67.15
2022-11-05T10:25:02.285Z,68.39
2022-11-05T10:27:37.226Z,68.70
2022-11-05T10:30:09.731Z,69.08
2022-11-05T10:32:41.184Z,69.13
2022-11-05T10:35:16.209Z,69.48
2022-11-05T10:37:50.381Z,69.61
2022-11-05T10:40:30.939Z,69.63
2022-11-05T10:43:06.722Z,68.88
2022-11-05T10:45:48.313Z,68.81
2022-11-05T10:48:31.766Z,68.84
2022-11-05T10:51:08.353Z,69.10
2022-11-05T10:54:09.339Z,68.31
2022-11-05T10:56:40.763Z,67.98
2022-11-05T10:59:22.833Z,68.57
2022-11-05T11:02:01.424Z,68.57
2022-11-05T11:04:37.681Z,68.33
2022-11-05T11:07:07.644Z,69.32
2022-11-05T11:09:38.833Z,69.70
2022-11-05T11:12:16.721Z,69.59
2022-11-05T11:15:01.839Z,70.12
2022-11-05T11:17:35.553Z,70.45
2022-11-05T11:20:22.126Z,70.82
2022-11-05T11:23:13.969Z,70.65
2022-11-05T11:25:48.784Z,70.59
2022-11-05T11:28:23.431Z,70.24
2022-11-05T11:30:57.037Z,69.79
2022-11-05T11:33:30.341Z,69.85
2022-11-05T11:36:00.176Z,70.00
2022-11-05T11:38:32.448Z,69.84
2022-11-05T11:41:26.707Z,69.38
2022-11-05T11:43:58.932Z,69.43
2022-11-05T11:46:32.748Z,69.22
2022-11-05T11:49:04.735Z,69.43
2022-11-05T11:51:40.179Z,69.59
2022-11-05T11:54:24.865Z,69.49
2022-11-05T11:56:57.959Z,70.06
2022-11-05T12:02:58.869Z,70.70
2022-11-05T12:05:46.463Z,70.19
2022-11-05T12:08:34.618Z,70.45
2022-11-05T12:11:09.770Z,70.49
2022-11-05T12:14:06.366Z,70.30
2022-11-05T12:17:00.909Z,70.67
2022-11-05T12:19:49.868Z,70.81
2022-11-05T12:22:30.814Z,70.96
2022-11-05T12:28:03.982Z,71.25
2022-11-05T12:30:46.074Z,71.52
2022-11-05T12:33:23.326Z,71.26
2022-11-05T12:36:10.462Z,71.32
2022-11-05T12:38:56.984Z,71.48
2022-11-05T12:41:36.608Z,71.59
2022-11-05T12:44:32.403Z,72.28
2022-11-05T12:47:19.658Z,72.38
2022-11-05T12:55:49.217Z,71.71
2022-11-05T12:58:24.913Z,72.71
2022-11-05T13:00:59.645Z,73.10
2022-11-05T13:03:38.457Z,73.48
2022-11-05T13:06:12.088Z,73.28
2022-11-05T13:08:46.430Z,73.30
2022-11-05T13:11:24.719Z,73.42
2022-11-05T13:14:05.835Z,73.21
2022-11-05T13:16:39.218Z,73.37
2022-11-05T13:19:18.593Z,73.15
2022-11-05T13:21:54.145Z,73.33
2022-11-05T13:24:26.762Z,73.43
2022-11-05T13:27:17.000Z,73.42
2022-11-05T13:29:51.839Z,73.19
2022-11-05T13:32:37.422Z,73.45
2022-11-05T13:35:09.637Z,73.40
2022-11-05T13:37:59.904Z,73.95
2022-11-05T13:40:56.969Z,73.81
2022-11-05T13:43:51.851Z,74.32
2022-11-05T13:46:34.205Z,74.92
2022-11-05T13:52:24.619Z,74.78
2022-11-05T13:55:19.860Z,74.94
2022-11-05T13:58:04.152Z,74.78
2022-11-05T14:00:41.832Z,74.50
2022-11-05T14:03:21.124Z,74.45
2022-11-05T14:05:56.794Z,74.89
2022-11-05T14:08:31.911Z,74.55
2022-11-05T14:11:10.464Z,74.38
2022-11-05T14:13:42.425Z,73.87
2022-11-05T14:16:19.215Z,74.26
2022-11-05T14:18:50.324Z,74.49
2022-11-05T14:21:50.910Z,74.88
2022-11-05T14:24:47.527Z,75.11
2022-11-05T14:27:46.434Z,75.25
2022-11-05T14:30:43.852Z,75.43
2022-11-05T14:33:33.136Z,75.32
2022-11-05T14:36:37.906Z,75.50
2022-11-05T14:39:26.147Z,74.33
2022-11-05T14:41:58.578Z,74.59
2022-11-05T14:44:40.173Z,75.10
2022-11-05T14:47:24.007Z,74.94
2022-11-05T14:50:02.102Z,75.18
2022-11-05T14:52:33.525Z,75.02
2022-11-05T14:55:02.962Z,74.84
2022-11-05T14:58:03.793Z,75.25
2022-11-05T15:00:52.529Z,75.47
2022-11-05T15:03:47.535Z,75.43
2022-11-05T15:06:30.270Z,75.97
2022-11-05T15:09:12.127Z,75.66
2022-11-05T15:11:58.335Z,76.02
2022-11-05T15:14:33.350Z,75.83
2022-11-05T15:17:15.271Z,75.53
2022-11-05T15:19:46.371Z,75.62
2022-11-05T15:22:31.190Z,75.54
2022-11-05T15:25:00.935Z,75.41
2022-11-05T15:27:48.249Z,76.02
2022-11-05T15:30:19.192Z,75.92
2022-11-05T15:32:48.718Z,76.07
2022-11-05T15:35:24.339Z,75.74
2022-11-05T15:38:01.661Z,75.75
2022-11-05T15:40:33.382Z,75.30
2022-11-05T15:43:19.559Z,75.41
2022-11-05T15:46:07.405Z,75.55
2022-11-05T15:48:38.040Z,75.63
2022-11-05T15:51:08.072Z,75.67
2022-11-05T15:54:28.473Z,76.17
2022-11-05T15:56:53.972Z,75.93
2022-11-05T15:59:25.173Z,76.05
2022-11-05T16:01:57.149Z,76.04
2022-11-05T16:04:29.764Z,75.88
2022-11-05T16:07:01.953Z,75.99
2022-11-05T16:09:45.527Z,75.89
2022-11-05T16:12:26.721Z,76.19
2022-11-05T16:15:01.424Z,76.41
2022-11-05T16:17:48.239Z,76.58
2022-11-05T16:20:24.851Z,76.64
2022-11-05T16:22:56.149Z,77.18
2022-11-05T16:25:41.138Z,77.43
2022-11-05T16:28:23.348Z,77.53
2022-11-05T16:31:02.933Z,77.63
2022-11-05T16:33:36.205Z,77.52
2022-11-05T16:36:06.056Z,77.21
2022-11-05T16:38:35.480Z,77.34
2022-11-05T16:41:06.796Z,77.50
2022-11-05T16:43:36.454Z,77.80
2022-11-05T16:46:06.315Z,77.73
2022-11-05T16:48:35.467Z,77.80
2022-11-05T16:51:05.239Z,77.59
2022-11-05T16:53:34.467Z,77.62
2022-11-05T16:56:06.444Z,77.24
2022-11-05T16:58:35.967Z,77.41
2022-11-05T17:01:07.887Z,77.27
2022-11-05T17:03:37.801Z,77.64
2022-11-05T17:06:07.942Z,77.32
2022-11-05T17:08:43.935Z,77.54
2022-11-05T17:11:17.378Z,77.89
2022-11-05T17:13:51.661Z,77.66
2022-11-05T17:16:20.985Z,78.07
2022-11-05T17:18:50.577Z,78.03
2022-11-05T17:21:20.131Z,78.30
2022-11-05T17:23:49.384Z,77.99
2022-11-05T17:26:22.647Z,78.08
2022-11-05T17:28:52.057Z,78.48
2022-11-05T17:31:21.279Z,78.38
2022-11-05T17:33:55.561Z,78.17
2022-11-05T17:36:25.322Z,78.30
2022-11-05T17:38:55.529Z,78.03
2022-11-05T17:41:31.946Z,78.76
2022-11-05T17:44:01.216Z,78.44
2022-11-05T17:46:30.618Z,78.81
2022-11-05T17:49:00.022Z,78.51
2022-11-05T17:51:29.371Z,78.79
2022-11-05T17:53:58.851Z,79.28
2022-11-05T17:56:34.419Z,79.06
2022-11-05T17:59:07.614Z,79.16
2022-11-05T18:01:47.704Z,79.15
2022-11-05T18:04:17.120Z,79.11
2022-11-05T18:06:46.213Z,78.50
2022-11-05T18:09:17.195Z,78.35
2022-11-05T18:11:46.528Z,78.56
2022-11-05T18:14:22.784Z,77.97
2022-11-05T18:16:54.781Z,77.74
2022-11-05T18:19:24.209Z,78.61
2022-11-05T18:21:53.398Z,79.10
2022-11-05T18:24:22.920Z,79.00
2022-11-05T18:26:52.990Z,79.05
2022-11-05T18:29:24.104Z,79.40
2022-11-05T18:31:53.500Z,79.29
2022-11-05T18:34:22.948Z,79.12
2022-11-05T18:36:56.600Z,78.97
2022-11-05T18:39:26.643Z,79.42
2022-11-05T18:41:56.077Z,80.02
2022-11-05T18:44:37.810Z,80.59
2022-11-05T18:47:08.849Z,80.71
2022-11-05T18:49:41.213Z,80.37
2022-11-05T18:52:10.700Z,80.52
2022-11-05T18:54:39.961Z,80.79
2022-11-05T18:57:09.649Z,80.72
2022-11-05T18:59:41.681Z,80.53
2022-11-05T19:02:18.153Z,80.22
2022-11-05T19:05:07.000Z,80.48
2022-11-05T19:07:43.648Z,80.01
2022-11-05T19:10:13.062Z,79.86
2022-11-05T19:12:42.595Z,80.20
2022-11-05T19:15:19.039Z,80.22
2022-11-05T19:17:48.440Z,80.50
2022-11-05T19:20:17.931Z,80.69
2022-11-05T19:22:47.358Z,80.43
2022-11-05T19:25:16.625Z,80.67
2022-11-05T19:27:46.122Z,80.29
2022-11-05T19:30:17.526Z,80.24
2022-11-05T19:32:46.947Z,79.95
2022-11-05T19:35:16.295Z,80.35
2022-11-05T19:37:45.767Z,80.05
2022-11-05T19:40:15.014Z,79.80
2022-11-05T19:42:44.265Z,80.12
2022-11-05T19:45:43.040Z,80.37
2022-11-05T19:48:11.431Z,80.20
2022-11-05T19:50:44.183Z,80.36
2022-11-05T19:53:13.481Z,80.08
2022-11-05T19:55:44.584Z,79.95
2022-11-05T19:58:14.135Z,80.29
2022-11-05T20:00:43.757Z,79.66
2022-11-05T20:03:15.551Z,79.93
2022-11-05T20:05:49.936Z,79.57
2022-11-05T20:08:24.248Z,79.57
2022-11-05T20:10:56.959Z,79.61
2022-11-05T20:13:31.620Z,79.68
2022-11-05T20:16:01.361Z,79.17
2022-11-05T20:18:33.214Z,79.10
2022-11-05T20:21:03.332Z,79.21
2022-11-05T20:23:33.380Z,79.12
2022-11-05T20:26:07.763Z,78.86
2022-11-05T20:28:38.432Z,78.72
2022-11-05T20:31:12.108Z,78.70
2022-11-05T20:33:44.546Z,78.93
2022-11-05T20:36:15.950Z,79.25
2022-11-05T20:38:49.851Z,79.26
2022-11-05T20:41:21.894Z,79.10
2022-11-05T20:43:51.149Z,79.31
2022-11-05T20:46:21.924Z,78.90
2022-11-05T20:48:58.271Z,79.22
2022-11-05T20:51:27.527Z,79.12
2022-11-05T20:53:58.017Z,79.40
2022-11-05T20:56:29.586Z,79.16
2022-11-05T20:58:59.786Z,79.15
2022-11-05T21:01:36.086Z,79.15
2022-11-05T21:04:08.671Z,78.91
2022-11-05T21:06:37.948Z,79.08
2022-11-05T21:09:07.666Z,78.99
2022-11-05T21:12:02.897Z,79.28
2022-11-05T21:14:32.064Z,79.12
2022-11-05T21:17:01.135Z,78.98
2022-11-05T21:19:32.611Z,79.02
2022-11-05T21:22:02.308Z,79.02
2022-11-05T21:24:31.590Z,78.79
2022-11-05T21:27:01.125Z,78.89
2022-11-05T21:29:30.313Z,78.94
2022-11-05T21:31:59.812Z,78.77
2022-11-05T21:34:34.971Z,79.19
2022-11-05T21:37:11.279Z,78.70
2022-11-05T21:39:41.034Z,78.54
2022-11-05T21:42:10.248Z,78.82
2022-11-05T21:44:39.691Z,78.64
2022-11-05T21:47:09.157Z,78.87
2022-11-05T21:49:38.841Z,78.49
2022-11-05T21:52:25.821Z,78.58
2022-11-05T21:55:07.899Z,78.62
2022-11-05T21:57:55.457Z,78.26
2022-11-05T22:00:24.947Z,78.61
2022-11-05T22:02:54.326Z,78.39
2022-11-05T22:05:23.550Z,78.46
2022-11-05T22:07:54.768Z,78.16
2022-11-05T22:10:29.072Z,78.27
2022-11-05T22:12:58.339Z,78.07
2022-11-05T22:15:32.732Z,77.77
2022-11-05T22:18:01.951Z,77.86
2022-11-05T22:20:31.200Z,78.00
2022-11-05T22:23:02.349Z,78.25
2022-11-05T22:25:31.654Z,77.76
2022-11-05T22:28:00.748Z,77.93
2022-11-05T22:30:30.147Z,78.06
2022-11-05T22:32:59.417Z,77.91
2022-11-05T22:35:28.945Z,77.94
2022-11-05T22:38:04.520Z,78.03
2022-11-05T22:40:35.724Z,77.98
2022-11-05T22:43:10.196Z,78.21
2022-11-05T22:45:40.187Z,77.75
2022-11-05T22:48:09.864Z,78.45
2022-11-05T22:50:39.624Z,78.27
2022-11-05T22:53:08.723Z,78.39
2022-11-05T22:55:42.964Z,78.51
2022-11-05T22:58:12.413Z,78.16
2022-11-05T23:00:41.806Z,78.25
2022-11-05T23:03:11.584Z,77.90
2022-11-05T23:05:40.819Z,78.13
2022-11-05T23:08:24.604Z,77.68
2022-11-05T23:11:17.641Z,77.86
2022-11-05T23:13:46.791Z,77.75
2022-11-05T23:16:28.727Z,77.82
2022-11-05T23:19:10.527Z,77.27
2022-11-05T23:21:52.567Z,77.22
2022-11-05T23:24:21.663Z,77.22
2022-11-05T23:26:53.410Z,76.66
2022-11-05T23:29:25.057Z,77.33
2022-11-05T23:32:07.501Z,77.42
2022-11-05T23:34:37.196Z,77.29
2022-11-05T23:37:19.496Z,77.60
2022-11-05T23:39:50.018Z,77.13
2022-11-05T23:42:39.973Z,77.06
2022-11-05T23:45:23.638Z,77.61
2022-11-05T23:48:05.872Z,77.55
2022-11-05T23:50:39.482Z,77.59
2022-11-05T23:53:09.521Z,77.37
2022-11-05T23:55:39.380Z,77.33
2022-11-05T23:58:12.092Z,77.69
